Time;durP1;ratioP1;P1;durP2;ratioP2;P2;SDS_P1;SDS_P2;PMS_P1;PMS_P2;Temp;Humidity;BMP_temperature;BMP_pressure;BME280_temperature;BME280_humidity;BME280_pressure;Samples;Min_cycle;Max_cycle;Signal;HPM_P1;HPM_P2
2023/05/27 00:00:17;;;;;;;11.60;8.80;;;;;;;19.99;60.44;100411.02;104143;1259;62586;-55
2023/05/27 00:02:45;;;;;;;11.50;9.00;;;;;;;20.01;60.65;100414.54;107009;1258;60553;-54
2023/05/27 00:05:13;;;;;;;14.90;8.80;;;;;;;20.03;60.90;100423.72;104159;1257;60554;-54
2023/05/27 00:07:41;;;;;;;10.90;7.50;;;;;;;20.04;60.90;100423.37;104269;1258;65013;-55
2023/05/27 00:10:08;;;;;;;10.20;8.10;;;;;;;20.05;60.99;100421.16;104242;1257;61828;-55
2023/05/27 00:12:36;;;;;;;9.60;8.10;;;;;;;20.07;61.07;100419.86;105646;1256;63757;-54
2023/05/27 00:15:04;;;;;;;11.00;8.70;;;;;;;20.08;60.96;100419.57;104003;1259;63509;-55
2023/05/27 00:17:31;;;;;;;13.20;9.20;;;;;;;20.07;61.03;100416.80;104251;1256;60445;-54
2023/05/27 00:20:06;;;;;;;10.90;8.50;;;;;;;20.05;61.06;100416.73;104155;1256;63962;-55
2023/05/27 00:22:34;;;;;;;11.90;8.50;;;;;;;20.02;61.05;100417.52;104318;1257;61352;-54
2023/05/27 00:25:02;;;;;;;11.20;8.80;;;;;;;20.03;60.96;100419.04;104152;1259;64283;-57
2023/05/27 00:27:30;;;;;;;9.90;8.10;;;;;;;20.04;61.00;100417.00;104220;1257;59610;-56
2023/05/27 00:29:57;;;;;;;12.10;8.50;;;;;;;20.03;61.19;100417.25;104048;1257;60648;-56
2023/05/27 00:32:25;;;;;;;12.80;9.30;;;;;;;20.01;61.37;100416.22;104150;1256;63793;-54
2023/05/27 00:34:52;;;;;;;10.20;8.90;;;;;;;19.98;61.47;100415.69;104158;1256;61425;-55
2023/05/27 00:37:20;;;;;;;10.40;8.90;;;;;;;19.94;61.60;100413.39;104171;1262;62514;-55
2023/05/27 00:39:47;;;;;;;9.70;8.30;;;;;;;19.91;61.65;100416.47;104112;1260;60565;-55
2023/05/27 00:42:15;;;;;;;10.80;8.00;;;;;;;19.89;61.61;100415.06;104082;1260;60460;-53
2023/05/27 00:44:43;;;;;;;10.70;8.60;;;;;;;19.84;61.51;100415.04;104387;1253;64937;-54
2023/05/27 00:47:10;;;;;;;9.90;8.50;;;;;;;19.77;61.64;100412.50;108686;1252;61407;-54
2023/05/27 00:49:38;;;;;;;11.30;9.20;;;;;;;19.70;61.83;100412.09;108933;1253;63670;-54
2023/05/27 00:52:05;;;;;;;11.30;10.10;;;;;;;19.63;62.17;100415.72;108684;1253;58918;-55
2023/05/27 00:54:32;;;;;;;12.60;9.10;;;;;;;19.60;62.38;100417.63;105936;1255;59315;-55
2023/05/27 00:57:02;;;;;;;12.30;8.20;;;;;;;19.57;62.61;100418.31;104269;1258;63656;-55
2023/05/27 00:59:30;;;;;;;13.90;9.10;;;;;;;19.59;62.74;100415.11;108871;1253;60315;-54
2023/05/27 01:01:57;;;;;;;12.00;8.90;;;;;;;19.64;62.47;100411.73;106167;1257;63752;-54
2023/05/27 01:04:25;;;;;;;11.40;8.90;;;;;;;19.65;62.45;100412.70;104364;1254;60534;-53
2023/05/27 01:06:56;;;;;;;12.00;9.40;;;;;;;19.62;62.64;100408.27;106153;1255;60290;-54
2023/05/27 01:09:33;;;;;;;11.50;9.80;;;;;;;19.59;62.80;100411.22;107225;1255;65584;-54
2023/05/27 01:12:18;;;;;;;10.90;9.70;;;;;;;19.57;63.07;100413.27;104491;1254;62438;-53
2023/05/27 01:14:45;;;;;;;12.10;10.00;;;;;;;19.53;63.23;100406.16;106497;1254;63754;-55
2023/05/27 01:17:15;;;;;;;11.10;9.70;;;;;;;19.47;63.12;100402.65;104291;1253;60543;-54
2023/05/27 01:19:47;;;;;;;13.20;9.40;;;;;;;19.45;62.78;100401.80;106295;1261;59208;-54
2023/05/27 01:22:15;;;;;;;12.00;9.20;;;;;;;19.45;62.79;100401.84;104804;1253;63622;-54
2023/05/27 01:24:42;;;;;;;12.10;9.80;;;;;;;19.42;62.90;100402.00;108791;1253;61538;-54
2023/05/27 01:27:15;;;;;;;15.30;10.30;;;;;;;19.38;62.91;100404.47;108734;1253;66264;-54
2023/05/27 01:29:43;;;;;;;12.30;9.70;;;;;;;19.33;62.71;100405.61;108673;1253;60917;-54
2023/05/27 01:32:21;;;;;;;12.90;9.30;;;;;;;19.27;62.57;100402.52;108807;1253;58232;-54
2023/05/27 01:35:02;;;;;;;10.50;9.30;;;;;;;19.24;62.69;100405.95;108817;1252;64881;-55
2023/05/27 01:37:32;;;;;;;11.20;9.80;;;;;;;19.25;62.72;100407.01;108799;1253;60247;-54
2023/05/27 01:39:59;;;;;;;11.50;9.00;;;;;;;19.27;62.58;100404.81;108742;1254;62518;-54
2023/05/27 01:42:29;;;;;;;12.00;9.60;;;;;;;19.26;62.48;100403.20;108607;1254;59983;-55
2023/05/27 01:44:56;;;;;;;11.10;9.20;;;;;;;19.22;62.14;100403.45;108635;1253;59030;-55
2023/05/27 01:47:24;;;;;;;10.50;9.00;;;;;;;19.16;62.03;100404.40;108610;1253;63715;-55
2023/05/27 01:49:51;;;;;;;12.00;9.80;;;;;;;19.11;62.34;100404.88;105415;1253;62305;-54
2023/05/27 01:52:19;;;;;;;10.80;9.70;;;;;;;19.08;62.51;100405.10;104559;1257;62530;-54
2023/05/27 01:54:46;;;;;;;10.80;9.10;;;;;;;19.08;62.40;100406.69;104506;1257;61168;-55
2023/05/27 01:57:14;;;;;;;10.10;8.90;;;;;;;19.09;62.56;100409.21;104485;1254;60558;-54
2023/05/27 01:59:41;;;;;;;12.00;10.10;;;;;;;19.11;62.58;100408.12;104316;1253;63642;-55
2023/05/27 02:02:09;;;;;;;12.10;10.70;;;;;;;19.11;62.55;100407.03;104346;1254;61403;-54
2023/05/27 02:04:36;;;;;;;12.90;11.60;;;;;;;19.09;62.49;100407.80;104452;1253;63785;-55
2023/05/27 02:07:04;;;;;;;13.70;11.30;;;;;;;19.07;62.57;100407.91;104468;1258;60877;-54
2023/05/27 02:09:31;;;;;;;12.60;11.10;;;;;;;19.03;62.82;100408.84;106931;1253;59595;-54
2023/05/27 02:11:59;;;;;;;15.40;10.30;;;;;;;18.99;62.62;100409.20;104389;1253;64886;-55
2023/05/27 02:14:27;;;;;;;11.40;9.30;;;;;;;18.96;62.56;100407.95;104343;1255;61485;-56
2023/05/27 02:16:54;;;;;;;12.90;9.50;;;;;;;18.94;62.69;100410.55;104411;1257;62740;-53
2023/05/27 02:19:22;;;;;;;12.20;10.20;;;;;;;18.93;62.88;100413.41;104336;1258;60570;-54
2023/05/27 02:21:50;;;;;;;12.30;10.40;;;;;;;18.91;63.04;100413.21;104315;1254;59416;-54
2023/05/27 02:24:18;;;;;;;15.00;10.50;;;;;;;18.88;63.20;100415.01;104442;1257;65128;-53
2023/05/27 02:26:45;;;;;;;13.90;10.80;;;;;;;18.85;63.43;100412.72;104497;1252;64002;-54
2023/05/27 02:29:13;;;;;;;12.70;10.80;;;;;;;18.82;63.64;100415.59;104475;1252;63787;-54
2023/05/27 02:31:41;;;;;;;11.30;9.60;;;;;;;18.80;63.62;100416.00;104448;1258;60532;-53
2023/05/27 02:34:09;;;;;;;12.10;9.70;;;;;;;18.83;63.68;100415.96;104452;1258;60539;-54
2023/05/27 02:36:37;;;;;;;10.80;9.20;;;;;;;18.86;63.54;100417.35;104426;1253;63823;-54
2023/05/27 02:39:18;;;;;;;11.90;9.20;;;;;;;18.91;63.56;100416.16;108771;1253;61900;-54
2023/05/27 02:41:45;;;;;;;12.10;9.60;;;;;;;18.96;63.63;100420.06;108724;1255;62451;-54
2023/05/27 02:44:13;;;;;;;12.10;9.70;;;;;;;18.97;63.38;100417.05;108725;1253;58567;-53
2023/05/27 02:46:40;;;;;;;11.70;9.90;;;;;;;18.99;63.21;100417.23;108875;1253;59053;-54
2023/05/27 02:49:08;;;;;;;11.60;10.40;;;;;;;18.99;63.05;100418.90;108737;1253;67616;-54
2023/05/27 02:51:35;;;;;;;11.80;10.00;;;;;;;18.98;62.88;100415.44;105924;1254;61552;-54
2023/05/27 02:54:03;;;;;;;11.10;9.40;;;;;;;19.01;62.76;100411.75;104287;1254;64036;-57
2023/05/27 02:56:30;;;;;;;11.00;9.70;;;;;;;19.06;62.75;100409.80;104401;1253;60442;-53
2023/05/27 02:58:58;;;;;;;10.90;9.20;;;;;;;19.13;62.94;100412.16;104353;1253;60478;-54
2023/05/27 03:01:26;;;;;;;12.00;9.40;;;;;;;19.20;63.10;100413.47;104336;1258;65520;-53
2023/05/27 03:03:53;;;;;;;11.10;9.80;;;;;;;19.25;62.94;100416.98;104527;1257;60459;-54
2023/05/27 03:06:21;;;;;;;13.90;11.20;;;;;;;19.29;62.87;100419.55;104381;1253;62586;-53
2023/05/27 03:08:49;;;;;;;11.60;10.40;;;;;;;19.33;62.58;100420.71;104337;1259;60466;-54
2023/05/27 03:11:16;;;;;;;11.90;9.60;;;;;;;19.34;62.19;100421.48;104395;1253;60568;-54
2023/05/27 03:13:44;;;;;;;11.60;8.90;;;;;;;19.36;62.16;100420.40;104363;1253;65457;-54
2023/05/27 03:16:12;;;;;;;11.10;9.50;;;;;;;19.41;61.96;100423.98;104395;1258;61887;-55
2023/05/27 03:18:40;;;;;;;11.40;9.50;;;;;;;19.49;62.05;100422.34;107636;1258;62439;-53
2023/05/27 03:21:08;;;;;;;11.10;9.60;;;;;;;19.58;62.12;100424.40;104461;1261;60437;-54
2023/05/27 03:23:35;;;;;;;12.70;11.00;;;;;;;19.62;62.29;100419.55;104454;1253;61706;-54
2023/05/27 03:26:03;;;;;;;11.70;9.70;;;;;;;19.66;62.27;100421.30;104307;1253;64879;-56
2023/05/27 03:28:31;;;;;;;12.60;10.50;;;;;;;19.69;61.97;100420.73;108873;1252;61800;-54
2023/05/27 03:30:59;;;;;;;11.60;10.10;;;;;;;19.71;61.62;100421.45;108686;1254;63696;-54
2023/05/27 03:33:38;;;;;;;13.20;10.40;;;;;;;19.73;61.10;100418.70;106604;1255;59701;-55
2023/05/27 03:36:05;;;;;;;15.10;10.30;;;;;;;19.75;60.46;100419.92;104991;1253;60860;-54
2023/05/27 03:38:33;;;;;;;14.10;10.00;;;;;;;19.75;60.30;100422.73;104572;1253;64955;-54
2023/05/27 03:41:00;;;;;;;10.70;8.90;;;;;;;19.79;60.15;100423.91;104487;1254;61303;-54
2023/05/27 03:43:28;;;;;;;11.70;9.00;;;;;;;19.85;59.55;100421.70;104450;1257;63745;-55
2023/05/27 03:45:56;;;;;;;10.70;9.20;;;;;;;19.94;58.97;100423.88;104343;1253;60439;-54
2023/05/27 03:48:23;;;;;;;10.40;8.90;;;;;;;20.01;58.62;100422.01;108983;1253;59977;-55
2023/05/27 03:50:51;;;;;;;12.90;9.50;;;;;;;20.08;58.09;100426.70;108683;1254;66557;-54
2023/05/27 03:53:18;;;;;;;12.10;9.50;;;;;;;20.13;57.85;100430.72;108810;1253;61402;-55
2023/05/27 03:55:46;;;;;;;12.10;9.70;;;;;;;20.14;57.72;100432.84;108848;1253;64022;-55
2023/05/27 03:58:13;;;;;;;12.00;9.70;;;;;;;20.12;57.93;100433.47;108772;1253;58669;-54
2023/05/27 04:00:41;;;;;;;11.90;10.30;;;;;;;20.09;57.95;100429.73;108792;1254;59519;-54
2023/05/27 04:03:09;;;;;;;12.60;10.00;;;;;;;20.09;57.85;100429.47;108440;1253;63620;-54
2023/05/27 04:05:37;;;;;;;11.30;9.70;;;;;;;20.15;57.60;100424.63;104430;1258;60506;-54
2023/05/27 04:08:05;;;;;;;12.80;9.90;;;;;;;20.23;57.39;100428.04;104693;1253;62461;-55
2023/05/27 04:10:32;;;;;;;11.90;9.70;;;;;;;20.29;57.17;100428.60;104753;1257;60456;-54
2023/05/27 04:13:00;;;;;;;10.90;9.20;;;;;;;20.34;57.11;100428.50;104545;1253;60737;-54
2023/05/27 04:15:27;;;;;;;12.10;9.70;;;;;;;20.38;57.20;100428.15;108663;1253;64892;-54
2023/05/27 04:17:55;;;;;;;12.50;9.70;;;;;;;20.45;57.15;100429.73;108930;1253;61393;-54
2023/05/27 04:20:23;;;;;;;11.40;9.80;;;;;;;20.50;56.83;100429.32;108860;1253;70481;-54
2023/05/27 04:22:53;;;;;;;11.70;9.60;;;;;;;20.54;56.79;100434.01;108704;1255;61339;-54
2023/05/27 04:25:22;;;;;;;14.20;9.60;;;;;;;20.57;56.68;100432.81;108798;1253;58455;-55
2023/05/27 04:27:58;;;;;;;12.60;9.80;;;;;;;20.63;56.37;100435.61;108595;1256;65889;-54
2023/05/27 04:30:26;;;;;;;10.70;9.20;;;;;;;20.68;56.55;100434.61;108705;1258;61398;-54
2023/05/27 04:32:54;;;;;;;15.30;9.30;;;;;;;20.77;56.17;100437.67;108669;1253;63718;-55
2023/05/27 04:35:23;;;;;;;12.50;9.80;;;;;;;20.86;55.85;100437.61;108665;1256;59079;-55
2023/05/27 04:37:50;;;;;;;10.60;8.80;;;;;;;20.94;56.12;100436.22;108719;1253;58786;-54
2023/05/27 04:40:19;;;;;;;14.00;9.50;;;;;;;21.02;56.07;100431.52;104635;1253;64912;-54
2023/05/27 04:43:05;;;;;;;;;;;;;;;21.10;55.80;100429.14;104664;1254;62436;-54
2023/05/27 04:45:34;;;;;;;11.00;9.50;;;;;;;21.16;55.83;100429.91;108611;1253;64216;-54
2023/05/27 04:48:02;;;;;;;13.60;9.20;;;;;;;21.23;55.35;100431.57;108579;1256;60434;-55
2023/05/27 04:50:29;;;;;;;10.30;8.70;;;;;;;21.29;54.97;100430.10;108775;1253;58611;-55
2023/05/27 04:52:57;;;;;;;11.60;10.40;;;;;;;21.35;54.86;100435.09;105246;1253;63916;-55
2023/05/27 04:55:28;;;;;;;11.70;10.40;;;;;;;21.42;55.03;100429.27;104539;1258;62476;-53
2023/05/27 04:57:56;;;;;;;15.10;9.60;;;;;;;21.48;54.91;100427.82;104633;1258;62454;-54
2023/05/27 05:00:35;;;;;;;13.20;10.20;;;;;;;21.56;54.74;100429.08;108679;1254;58635;-55
2023/05/27 05:03:03;;;;;;;16.90;9.00;;;;;;;21.66;54.87;100433.03;104495;1259;61127;-55
2023/05/27 05:05:32;;;;;;;15.90;11.40;;;;;;;21.74;54.72;100432.84;106025;1260;65005;-56
2023/05/27 05:08:00;;;;;;;14.20;10.60;;;;;;;21.83;54.00;100435.17;104467;1253;63847;-54
2023/05/27 05:10:29;;;;;;;13.80;12.00;;;;;;;21.88;53.71;100431.78;105334;1253;64302;-54
2023/05/27 05:12:57;;;;;;;14.20;11.40;;;;;;;21.93;53.42;100428.39;106857;1256;60553;-55
2023/05/27 05:15:25;;;;;;;13.00;11.10;;;;;;;21.97;53.38;100427.64;105399;1258;60626;-55
2023/05/27 05:17:54;;;;;;;14.10;10.60;;;;;;;22.02;53.28;100427.05;106991;1253;63646;-54
2023/05/27 05:20:26;;;;;;;16.30;10.90;;;;;;;22.07;53.22;100426.39;108685;1252;61633;-55
2023/05/27 05:22:53;;;;;;;16.00;11.90;;;;;;;22.12;53.03;100426.86;108610;1254;62476;-55
2023/05/27 05:25:21;;;;;;;12.60;11.10;;;;;;;22.16;52.28;100429.56;108621;1254;60993;-54
2023/05/27 05:27:51;;;;;;;12.50;11.20;;;;;;;22.18;52.26;100429.20;108629;1253;58573;-55
2023/05/27 05:30:18;;;;;;;12.90;10.20;;;;;;;22.22;52.38;100429.11;106324;1255;65410;-54
2023/05/27 05:32:46;;;;;;;13.20;10.80;;;;;;;22.27;52.38;100427.56;104454;1253;61374;-55
2023/05/27 05:35:14;;;;;;;12.50;10.60;;;;;;;22.34;52.26;100431.50;104399;1256;63827;-54
2023/05/27 05:37:45;;;;;;;12.80;11.40;;;;;;;22.39;51.96;100433.67;104556;1253;60344;-54
2023/05/27 05:40:13;;;;;;;12.10;9.80;;;;;;;22.43;51.95;100433.61;108516;1253;252836;-54
2023/05/27 05:43:35;;;;;;;11.60;10.40;;;;;;;22.28;52.49;100436.53;101559;1295;602039;-55
2023/05/27 05:46:03;;;;;;;12.20;10.80;;;;;;;22.55;51.95;100437.95;107918;1267;58805;-55
2023/05/27 05:48:31;;;;;;;13.90;11.00;;;;;;;22.63;51.32;100438.73;107939;1267;57476;-56
2023/05/27 05:51:00;;;;;;;15.10;11.20;;;;;;;22.68;50.99;100441.09;107975;1265;63758;-55
2023/05/27 05:53:28;;;;;;;12.30;10.80;;;;;;;22.72;50.67;100440.20;108231;1263;61443;-56
2023/05/27 05:55:56;;;;;;;12.60;11.20;;;;;;;22.75;50.52;100444.09;108087;1262;64395;-55
2023/05/27 05:58:24;;;;;;;12.20;10.90;;;;;;;22.79;50.74;100444.92;108092;1260;172814;-54
2023/05/27 06:00:52;;;;;;;12.80;10.70;;;;;;;22.86;50.74;100448.40;108227;1260;57855;-60
2023/05/27 06:03:32;;;;;;;13.10;10.90;;;;;;;22.92;50.26;100443.14;106384;1260;62005;-60
2023/05/27 06:06:02;;;;;;;14.30;11.00;;;;;;;22.96;50.42;100441.66;105940;1263;60143;-57
2023/05/27 06:08:30;;;;;;;18.90;11.60;;;;;;;22.99;50.50;100444.27;103847;1266;62520;-58
2023/05/27 06:11:10;;;;;;;12.10;10.60;;;;;;;23.02;50.87;100445.59;103766;1261;59749;-57
2023/05/27 06:13:39;;;;;;;12.30;10.30;;;;;;;23.03;50.71;100448.48;108177;1260;58419;-60
2023/05/27 06:16:07;;;;;;;13.90;11.10;;;;;;;23.04;50.71;100450.67;104401;1261;64130;-59
2023/05/27 06:18:35;;;;;;;13.90;11.50;;;;;;;23.04;50.67;100454.52;108283;1264;60110;-56
2023/05/27 06:21:03;;;;;;;12.20;10.90;;;;;;;23.04;50.24;100454.19;108240;1260;62420;-58
2023/05/27 06:23:38;;;;;;;12.20;10.60;;;;;;;23.04;50.35;100461.49;108158;1264;57898;-59
2023/05/27 06:26:14;;;;;;;12.50;10.90;;;;;;;23.08;50.28;100464.42;108232;1260;59777;-58
2023/05/27 06:28:46;;;;;;;12.70;10.50;;;;;;;23.14;50.17;100460.64;108111;1260;64143;-58
2023/05/27 06:31:14;;;;;;;11.80;10.00;;;;;;;23.20;50.09;100463.90;108187;1266;60057;-57
2023/05/27 06:33:42;;;;;;;13.40;10.20;;;;;;;23.26;49.66;100460.45;108375;1260;62510;-59
2023/05/27 06:36:09;;;;;;;15.00;10.90;;;;;;;23.31;49.94;100464.91;108258;1263;59038;-59
2023/05/27 06:38:39;;;;;;;12.30;10.50;;;;;;;23.36;49.85;100464.39;108240;1260;58507;-58
2023/05/27 06:41:07;;;;;;;11.80;10.60;;;;;;;23.40;49.77;100464.19;104395;1262;64239;-57
2023/05/27 06:43:36;;;;;;;14.00;10.80;;;;;;;23.43;49.49;100463.15;103732;1263;61868;-59
2023/05/27 06:46:30;;;;;;;13.20;11.70;;;;;;;23.46;50.03;100466.50;103688;1261;63830;-60
2023/05/27 06:49:05;;;;;;;15.80;11.60;;;;;;;23.47;49.62;100466.66;103860;1261;59624;-55
2023/05/27 06:51:33;;;;;;;13.40;12.00;;;;;;;23.44;49.68;100473.27;108232;1263;57643;-54
2023/05/27 06:54:01;;;;;;;13.10;11.40;;;;;;;23.40;49.11;100477.88;108113;1260;64111;-59
2023/05/27 06:56:34;;;;;;;13.40;11.30;;;;;;;23.38;49.72;100483.84;108154;1260;60112;-55
2023/05/27 06:59:25;;;;;;;13.10;11.70;;;;;;;23.37;49.70;100481.41;106461;1263;63809;-58
2023/05/27 07:01:53;;;;;;;13.30;11.90;;;;;;;23.35;49.56;100483.21;103775;1263;60466;-57
2023/05/27 07:04:20;;;;;;;13.30;11.50;;;;;;;23.35;49.90;100485.11;103792;1261;59801;-56
2023/05/27 07:06:57;;;;;;;13.40;11.90;;;;;;;23.33;49.48;100480.66;103733;1263;64928;-57
2023/05/27 07:09:24;;;;;;;13.80;11.90;;;;;;;23.25;49.54;100478.09;103752;1267;69249;-56
2023/05/27 07:11:52;;;;;;;12.50;10.50;;;;;;;23.18;49.62;100485.63;103761;1263;72726;-57
2023/05/27 07:14:38;;;;;;;12.50;11.10;;;;;;;23.14;49.78;100485.70;108243;1264;58548;-57
2023/05/27 07:17:07;;;;;;;11.70;10.30;;;;;;;23.12;49.18;100483.59;108155;1261;57332;-58
2023/05/27 07:19:35;;;;;;;12.70;10.50;;;;;;;23.11;49.20;100484.08;105216;1267;64134;-58
2023/05/27 07:22:05;;;;;;;15.60;11.10;;;;;;;23.11;49.49;100481.61;108209;1266;60100;-60
2023/05/27 07:24:33;;;;;;;12.80;10.60;;;;;;;23.10;49.33;100487.67;108257;1263;62602;-59
2023/05/27 07:27:00;;;;;;;11.50;9.90;;;;;;;23.09;48.77;100488.54;108326;1266;60443;-58
2023/05/27 07:29:29;;;;;;;14.60;10.50;;;;;;;23.07;48.60;100489.04;108364;1263;57675;-59
2023/05/27 07:32:15;;;;;;;;;;;;;;;23.09;48.72;100486.07;108300;1262;62879;-58
2023/05/27 07:34:42;;;;;;;13.40;10.90;;;;;;;23.10;48.76;100488.99;108211;1267;62557;-59
2023/05/27 07:37:10;;;;;;;13.70;12.30;;;;;;;23.12;49.28;100489.73;108284;1262;63751;-59
2023/05/27 07:39:37;;;;;;;12.80;11.20;;;;;;;23.17;49.62;100493.67;108259;1265;61492;-59
2023/05/27 07:42:05;;;;;;;15.70;11.30;;;;;;;23.24;49.92;100490.63;108213;1260;58982;-60
2023/05/27 07:44:33;;;;;;;13.00;11.10;;;;;;;23.32;49.22;100495.48;108287;1260;64733;-58
2023/05/27 07:47:00;;;;;;;13.20;10.70;;;;;;;23.42;48.35;100487.80;108252;1260;63165;-58
2023/05/27 07:49:28;;;;;;;13.10;10.00;;;;;;;23.53;47.20;100484.61;105879;1262;64183;-60
2023/05/27 07:52:28;;;;;;;12.90;10.50;;;;;;;23.62;47.17;100488.08;104237;1264;61961;-61
2023/05/27 07:54:57;;;;;;;14.50;10.80;;;;;;;23.66;46.94;100487.91;103887;1260;63283;-58
2023/05/27 07:57:25;;;;;;;15.60;12.10;;;;;;;23.65;46.70;100486.63;108182;1262;64117;-58
2023/05/27 07:59:52;;;;;;;14.40;11.20;;;;;;;23.61;47.05;100487.66;108295;1261;60111;-57
2023/05/27 08:02:21;;;;;;;13.50;11.40;;;;;;;23.56;47.15;100487.52;108501;1262;63646;-60
2023/05/27 08:04:50;;;;;;;12.10;10.80;;;;;;;23.52;47.15;100485.51;108161;1265;59832;-58
2023/05/27 08:07:40;;;;;;;13.80;11.20;;;;;;;23.50;47.46;100485.05;107626;1263;59159;-58
2023/05/27 08:10:17;;;;;;;14.40;11.90;;;;;;;23.51;47.38;100487.38;107613;1266;65926;-58
2023/05/27 08:12:55;;;;;;;14.10;11.50;;;;;;;23.52;46.90;100482.13;105516;1263;61525;-57
2023/05/27 08:15:33;;;;;;;14.20;12.20;;;;;;;23.53;47.15;100479.77;103828;1260;62451;-60
2023/05/27 08:18:05;;;;;;;12.70;10.60;;;;;;;23.57;47.74;100479.59;104347;1260;59761;-60
2023/05/27 08:20:55;;;;;;;15.40;11.70;;;;;;;23.67;47.74;100477.74;105877;1260;59737;-60
2023/05/27 08:23:31;;;;;;;13.70;12.20;;;;;;;23.81;48.07;100479.20;105529;1261;75910;-59
2023/05/27 08:26:26;;;;;;;12.40;11.10;;;;;;;24.00;47.43;100474.82;104060;1261;63657;-61
2023/05/27 08:29:09;;;;;;;14.00;11.30;;;;;;;24.17;46.30;100472.95;106282;1262;65580;-58
2023/05/27 08:31:51;;;;;;;13.90;11.50;;;;;;;24.29;45.73;100467.14;104311;1262;59657;-60
2023/05/27 08:34:19;;;;;;;12.80;11.40;;;;;;;24.40;45.70;100463.42;104012;1262;59724;-58
2023/05/27 08:36:47;;;;;;;12.60;11.10;;;;;;;24.49;45.66;100467.70;103984;1257;62946;-58
2023/05/27 08:39:14;;;;;;;12.50;11.00;;;;;;;24.58;45.97;100466.11;104296;1259;62407;-57
2023/05/27 08:41:49;;;;;;;12.20;11.00;;;;;;;24.70;44.94;100464.66;104094;1260;63690;-58
2023/05/27 08:44:17;;;;;;;15.50;11.40;;;;;;;24.78;44.38;100468.92;104335;1257;59722;-58
2023/05/27 08:46:56;;;;;;;15.60;11.40;;;;;;;24.84;44.66;100465.91;104160;1265;59529;-60
2023/05/27 08:49:24;;;;;;;12.70;11.20;;;;;;;24.88;44.22;100462.46;104047;1257;62988;-58
2023/05/27 08:51:52;;;;;;;12.90;11.40;;;;;;;24.93;43.99;100461.31;108471;1257;61510;-58
2023/05/27 08:54:21;;;;;;;14.40;10.90;;;;;;;24.99;43.44;100461.94;105911;1260;62446;-58
2023/05/27 08:56:53;;;;;;;17.70;11.60;;;;;;;25.08;43.14;100461.28;105224;1257;60450;-60
2023/05/27 08:59:20;;;;;;;12.30;10.80;;;;;;;25.17;42.92;100458.44;107416;1260;58146;-58
2023/05/27 09:01:48;;;;;;;14.80;11.20;;;;;;;25.25;42.79;100455.91;104257;1263;62914;-57
2023/05/27 09:04:16;;;;;;;12.80;11.00;;;;;;;25.34;42.86;100455.37;108491;1257;62093;-60
2023/05/27 09:06:43;;;;;;;12.40;11.10;;;;;;;25.43;43.02;100452.18;108569;1257;62454;-59
2023/05/27 09:09:11;;;;;;;12.60;10.20;;;;;;;25.54;42.92;100443.41;108530;1257;58472;-59
2023/05/27 09:11:39;;;;;;;12.30;10.60;;;;;;;25.64;42.45;100437.95;108456;1257;59012;-57
2023/05/27 09:14:07;;;;;;;12.40;11.10;;;;;;;25.74;42.49;100437.41;108474;1257;64518;-58
2023/05/27 09:16:41;;;;;;;12.20;11.00;;;;;;;25.84;42.41;100438.80;108484;1258;60756;-59
2023/05/27 09:19:18;;;;;;;13.90;11.40;;;;;;;25.97;42.45;100437.05;108421;1257;64289;-58
2023/05/27 09:21:46;;;;;;;20.00;11.90;;;;;;;26.09;41.34;100435.31;108486;1258;60463;-57
2023/05/27 09:24:13;;;;;;;12.90;10.90;;;;;;;26.19;41.43;100435.02;108493;1257;58424;-58
2023/05/27 09:26:41;;;;;;;13.30;10.70;;;;;;;26.30;41.09;100435.23;108528;1257;64277;-58
2023/05/27 09:29:09;;;;;;;12.20;10.60;;;;;;;26.40;41.63;100435.95;108401;1257;69923;-58
2023/05/27 09:31:42;;;;;;;13.20;10.10;;;;;;;26.49;41.76;100429.36;108591;1257;62453;-57
2023/05/27 09:34:13;;;;;;;15.40;9.50;;;;;;;26.60;40.73;100423.88;107304;1257;59758;-58
2023/05/27 09:36:45;;;;;;;12.20;9.00;;;;;;;26.68;40.68;100421.80;104683;1263;59641;-56
2023/05/27 09:39:14;;;;;;;16.70;9.50;;;;;;;26.73;39.75;100416.70;106325;1259;63204;-58
2023/05/27 09:41:42;;;;;;;12.00;9.10;;;;;;;26.77;39.01;100413.20;106000;1257;70923;-59
2023/05/27 09:44:09;;;;;;;10.60;8.60;;;;;;;26.80;39.54;100403.65;105442;1263;64273;-58
2023/05/27 09:46:37;;;;;;;15.50;9.30;;;;;;;26.83;39.31;100398.84;104254;1263;59632;-56
2023/05/27 09:49:04;;;;;;;12.60;9.40;;;;;;;26.81;39.01;100400.89;104660;1260;59749;-57
2023/05/27 09:51:32;;;;;;;13.40;8.50;;;;;;;26.78;39.27;100403.44;104492;1258;64350;-59
2023/05/27 09:53:59;;;;;;;9.10;7.50;;;;;;;26.76;38.38;100405.28;104751;1257;61515;-59
2023/05/27 09:56:28;;;;;;;10.80;7.10;;;;;;;26.73;36.41;100403.25;104470;1266;63915;-59
2023/05/27 09:58:56;;;;;;;10.00;7.70;;;;;;;26.69;36.31;100406.33;104616;1258;60519;-60
2023/05/27 10:01:28;;;;;;;11.50;7.20;;;;;;;26.67;36.42;100405.86;107179;1259;58499;-59
2023/05/27 10:03:56;;;;;;;10.60;7.70;;;;;;;26.64;36.71;100404.31;105525;1257;65203;-60
2023/05/27 10:06:26;;;;;;;10.20;8.70;;;;;;;26.63;37.32;100399.68;104648;1257;61399;-59
2023/05/27 10:08:55;;;;;;;9.40;8.30;;;;;;;26.64;37.91;100389.96;106080;1257;65027;-57
2023/05/27 10:11:23;;;;;;;10.90;8.20;;;;;;;26.69;37.79;100381.89;108744;1257;59897;-58
2023/05/27 10:13:50;;;;;;;15.60;9.40;;;;;;;26.74;38.68;100376.73;106300;1257;60508;-57
2023/05/27 10:16:22;;;;;;;10.00;8.80;;;;;;;26.78;38.86;100375.05;104746;1258;64975;-56
2023/05/27 10:18:53;;;;;;;12.10;8.70;;;;;;;26.79;38.80;100374.38;104654;1257;61955;-60
2023/05/27 10:21:23;;;;;;;10.40;8.70;;;;;;;26.79;38.74;100372.64;108127;1257;63694;-61
2023/05/27 10:24:01;;;;;;;14.30;9.10;;;;;;;26.81;39.09;100362.02;105574;1257;61329;-60
2023/05/27 10:26:32;;;;;;;12.50;8.50;;;;;;;26.79;38.35;100365.52;108754;1257;59274;-58
2023/05/27 10:29:13;;;;;;;12.20;8.60;;;;;;;26.79;38.84;100369.73;106078;1258;68716;-59
2023/05/27 10:31:48;;;;;;;11.40;8.40;;;;;;;26.80;38.08;100371.38;104850;1262;61527;-58
2023/05/27 10:34:42;;;;;;;11.50;8.50;;;;;;;26.82;37.86;100372.18;108753;1257;63831;-58
2023/05/27 10:37:19;;;;;;;15.80;10.60;;;;;;;26.84;38.32;100378.14;107211;1260;60485;-59
2023/05/27 10:39:54;;;;;;;15.00;9.70;;;;;;;26.87;38.45;100381.23;103925;1257;60845;-58
2023/05/27 10:45:45;;;;;;;13.80;9.60;;;;;;;27.01;38.82;100384.80;104475;1263;61487;-58
2023/05/27 10:48:40;;;;;;;9.40;8.40;;;;;;;27.06;38.25;100380.27;103831;1271;64396;-59
2023/05/27 10:51:17;;;;;;;12.30;8.30;;;;;;;27.12;38.08;100378.23;104451;1266;60500;-60
2023/05/27 10:53:46;;;;;;;10.90;7.80;;;;;;;27.15;37.44;100375.27;103838;1274;60413;-58
2023/05/27 10:56:25;;;;;;;11.40;8.30;;;;;;;27.21;37.35;100371.86;104262;1263;63900;-56
2023/05/27 10:58:53;;;;;;;9.30;7.60;;;;;;;27.23;36.95;100370.07;104295;1266;61747;-58
2023/05/27 11:01:21;;;;;;;12.10;8.70;;;;;;;27.26;37.74;100371.53;106826;1268;63732;-58
2023/05/27 11:03:49;;;;;;;13.70;8.00;;;;;;;27.32;37.78;100375.10;105019;1269;60422;-58
2023/05/27 11:06:17;;;;;;;11.00;7.90;;;;;;;27.40;36.96;100377.56;104263;1264;61164;-59
2023/05/27 11:08:45;;;;;;;11.50;7.70;;;;;;;27.44;35.86;100373.45;104277;1268;73897;-59
2023/05/27 11:11:13;;;;;;;11.70;7.70;;;;;;;27.46;36.26;100370.84;104084;1263;62480;-60
2023/05/27 11:13:42;;;;;;;10.10;8.10;;;;;;;27.50;36.50;100369.85;105463;1267;64153;-59
2023/05/27 11:16:13;;;;;;;11.20;8.60;;;;;;;27.55;37.10;100368.61;104329;1267;60510;-58
2023/05/27 11:19:13;;;;;;;9.80;8.50;;;;;;;27.53;37.13;100368.14;104537;1259;60635;-58
2023/05/27 11:21:45;;;;;;;14.10;7.30;;;;;;;27.52;36.77;100368.40;104794;1259;63637;-59
2023/05/27 11:24:19;;;;;;;11.30;8.10;;;;;;;27.54;36.05;100363.95;108800;1257;61433;-59